Cairo — WDC6535 — position and weather

sailwx.info

Track history (hours):
 
Tides and Currents Weather Stations Pressure Air Temp Water Temp Dewpoint Dewpoint Depression Visibility Wind Speed Wind Dir Waves Ship Positions

Cairo

Owner: American Commercial Lines LLC, Jeffersonville, IN. More information available from US FCC via Universal Licensing System and Coast Guard Vessel Documentation Center.

Last reported at 2018-May-18 14:25 UTC. Time now 2018-May-22 10:01 UTC.
Position N 31°58' W 091°11'.

; draft 3 m.

Type: Towing. MMSI: 367057620.

Date/timePositionNaut miles runAvg speedWind from/ knotsBaromVisibWave heightAir tempDewpointWater temp
2018-May-18 14:25N 31°58' W 091°11'4 8.7
2018-May-18 13:57N 31°59' W 091°07'4 9.4
2018-May-18 13:31N 32°02' W 091°04'5 8.7
2018-May-18 12:56N 32°07' W 091°07'3 6.3
2018-May-18 12:31N 32°08' W 091°04'4 7.5
2018-May-18 12:00N 32°10' W 091°00'5 9.7
2018-May-18 11:30N 32°15' W 090°59'5 9.4
2018-May-18 11:01N 32°18' W 090°55'3 5.8
2018-May-18 10:30N 32°21' W 090°56'4 7.2
2018-May-18 10:00N 32°22' W 091°00'3 7.0
2018-May-18 09:30N 32°26' W 091°01'4 8.5
2018-May-18 09:01N 32°27' W 091°06'4 7.5
2018-May-18 08:29N 32°31' W 091°06'4 7.5
2018-May-18 08:00N 32°35' W 091°07'4 7.7
2018-May-18 07:28N 32°39' W 091°09'7 7.6
2018-May-18 06:35N 32°43' W 091°03'5 7.8
2018-May-18 05:57N 32°45' W 091°09'  
Track history (hours):
 
Tides and Currents Weather Stations Pressure Air Temp Water Temp Dewpoint Dewpoint Depression Visibility Wind Speed Wind Dir Waves Ship Positions

Cairo

Owner: American Commercial Lines LLC, Jeffersonville, IN. More information available from US FCC via Universal Licensing System and Coast Guard Vessel Documentation Center.

Last reported at 2018-May-18 14:25 UTC. Time now 2018-May-22 10:01 UTC.
Position N 31°58' W 091°11'.

; draft 3 m.

Type: Towing. MMSI: 367057620.

Date/timePositionNaut miles runAvg speedWind from/ knotsBaromVisibWave heightAir tempDewpointWater temp
2018-May-18 14:25N 31°58' W 091°11'4 8.7
2018-May-18 13:57N 31°59' W 091°07'4 9.4
2018-May-18 13:31N 32°02' W 091°04'5 8.7
2018-May-18 12:56N 32°07' W 091°07'3 6.3
2018-May-18 12:31N 32°08' W 091°04'4 7.5
2018-May-18 12:00N 32°10' W 091°00'5 9.7
2018-May-18 11:30N 32°15' W 090°59'5 9.4
2018-May-18 11:01N 32°18' W 090°55'3 5.8
2018-May-18 10:30N 32°21' W 090°56'4 7.2
2018-May-18 10:00N 32°22' W 091°00'3 7.0
2018-May-18 09:30N 32°26' W 091°01'4 8.5
2018-May-18 09:01N 32°27' W 091°06'4 7.5
2018-May-18 08:29N 32°31' W 091°06'4 7.5
2018-May-18 08:00N 32°35' W 091°07'4 7.7
2018-May-18 07:28N 32°39' W 091°09'7 7.6
2018-May-18 06:35N 32°43' W 091°03'5 7.8
2018-May-18 05:57N 32°45' W 091°09'  

Dump ship's entire track history